Time;durP1;ratioP1;P1;durP2;ratioP2;P2;SDS_P1;SDS_P2;PMS_P1;PMS_P2;Temp;Humidity;BMP_temperature;BMP_pressure;BME280_temperature;BME280_humidity;BME280_pressure;Samples;Min_cycle;Max_cycle;Signal;HPM_P1;HPM_P2
2022/11/13 00:00:11;;;;;;;15.07;6.13;;;;;;;13.74;87.44;102393.84;2034681;29;20036;-76
2022/11/13 00:01:32;;;;;;;15.00;5.47;;;;;;;13.75;87.29;102393.59;2040425;29;20040;-76
2022/11/13 00:02:52;;;;;;;15.88;6.10;;;;;;;13.75;87.14;102387.38;2038419;29;20039;-76
2022/11/13 00:04:14;;;;;;;13.20;5.70;;;;;;;13.70;87.13;102390.00;2038494;29;20048;-75
2022/11/13 00:05:34;;;;;;;17.30;5.05;;;;;;;13.68;86.82;102393.81;2033370;29;20119;-75
2022/11/13 00:06:57;;;;;;;14.05;5.45;;;;;;;13.70;87.25;102393.53;2030272;29;20028;-76
2022/11/13 00:08:20;;;;;;;15.63;5.75;;;;;;;13.71;87.05;102386.22;2038740;29;20031;-76
2022/11/13 00:09:41;;;;;;;15.25;5.60;;;;;;;13.73;86.82;102398.44;2041378;29;20047;-75
2022/11/13 00:11:09;;;;;;;15.50;5.05;;;;;;;13.73;87.00;102400.31;2040135;29;20526;-75
2022/11/13 00:12:30;;;;;;;13.80;5.93;;;;;;;13.71;86.85;102405.97;2036768;29;20051;-75
2022/11/13 00:13:50;;;;;;;15.95;5.60;;;;;;;13.72;86.81;102401.41;2041605;29;20507;-75
2022/11/13 00:15:10;;;;;;;15.70;5.45;;;;;;;13.70;86.73;102400.81;2040944;29;20047;-75
2022/11/13 00:16:39;;;;;;;17.80;5.85;;;;;;;13.67;86.58;102397.56;2041626;29;20051;-76
2022/11/13 00:18:03;;;;;;;16.67;5.85;;;;;;;13.69;86.71;102389.19;2041335;29;20032;-76
2022/11/13 00:19:28;;;;;;;15.40;5.70;;;;;;;13.67;86.79;102386.75;2035869;29;20400;-75
2022/11/13 00:20:49;;;;;;;12.88;6.05;;;;;;;13.68;86.66;102399.22;2041505;29;20086;-75
2022/11/13 00:22:12;;;;;;;13.98;5.65;;;;;;;13.70;86.97;102390.00;2041205;29;20043;-76
2022/11/13 00:23:34;;;;;;;17.83;5.78;;;;;;;13.70;86.76;102390.00;2041255;29;20396;-76
2022/11/13 00:24:54;;;;;;;16.55;6.10;;;;;;;13.70;86.79;102395.41;2040993;29;20043;-76
2022/11/13 00:26:17;;;;;;;14.75;5.18;;;;;;;13.59;86.37;102392.63;2031262;29;20040;-76
2022/11/13 00:27:38;;;;;;;15.77;5.65;;;;;;;13.53;86.87;102387.41;2024603;29;20040;-75
2022/11/13 00:29:02;;;;;;;12.52;5.00;;;;;;;13.53;87.14;102390.94;2024014;29;20036;-76
2022/11/13 00:30:25;;;;;;;13.98;5.32;;;;;;;13.52;87.17;102386.56;2037886;29;20472;-76
2022/11/13 00:31:48;;;;;;;15.40;6.15;;;;;;;13.55;86.92;102390.66;2039967;29;20491;-75
2022/11/13 00:33:16;;;;;;;17.65;5.90;;;;;;;13.53;87.03;102385.53;2032400;29;20381;-76
2022/11/13 00:34:37;;;;;;;14.90;5.13;;;;;;;13.54;87.06;102397.97;2038537;29;20039;-76
2022/11/13 00:36:09;;;;;;;16.27;5.63;;;;;;;13.54;87.03;102397.16;2040779;29;20032;-76
2022/11/13 00:37:29;;;;;;;15.38;5.80;;;;;;;13.52;87.01;102397.38;2040021;29;20503;-76
2022/11/13 00:38:50;;;;;;;14.68;5.68;;;;;;;13.54;87.45;102392.56;2033118;29;20039;-76
2022/11/13 00:40:13;;;;;;;13.27;5.20;;;;;;;13.59;87.45;102389.09;2038243;29;20031;-76
2022/11/13 00:41:36;;;;;;;16.38;5.57;;;;;;;13.62;87.67;102383.19;2040665;29;20039;-76
2022/11/13 00:42:57;;;;;;;12.90;5.70;;;;;;;13.64;87.49;102375.63;2033401;29;20036;-75
2022/11/13 00:44:20;;;;;;;11.65;5.20;;;;;;;13.66;87.47;102377.00;2032449;29;20128;-76
2022/11/13 00:45:41;;;;;;;15.02;5.45;;;;;;;13.65;87.45;102378.09;2041038;29;20046;-76
2022/11/13 00:47:05;;;;;;;11.98;4.93;;;;;;;13.68;87.04;102377.59;2041132;29;20047;-75
2022/11/13 00:48:30;;;;;;;11.45;5.18;;;;;;;13.71;86.92;102375.41;2041549;29;20047;-76
2022/11/13 00:49:51;;;;;;;15.10;5.38;;;;;;;13.70;87.13;102373.78;2041884;29;20040;-76
2022/11/13 00:51:13;;;;;;;11.95;4.65;;;;;;;13.68;86.95;102372.19;2041815;29;20031;-76
2022/11/13 00:52:34;;;;;;;11.07;4.82;;;;;;;13.70;86.68;102368.38;2040209;29;20044;-76
2022/11/13 00:53:55;;;;;;;13.00;5.35;;;;;;;13.70;86.67;102373.78;2040742;29;20032;-76
2022/11/13 00:55:18;;;;;;;12.30;5.57;;;;;;;13.67;86.67;102359.72;2039988;29;20039;-76
2022/11/13 00:56:41;;;;;;;15.82;5.40;;;;;;;13.68;86.69;102364.06;2038855;29;20492;-75
2022/11/13 00:58:03;;;;;;;16.23;5.63;;;;;;;13.66;86.68;102374.31;2034692;29;20047;-76
2022/11/13 00:59:24;;;;;;;11.85;5.50;;;;;;;13.66;86.45;102368.09;2040297;29;20035;-76
2022/11/13 01:00:49;;;;;;;13.63;5.57;;;;;;;13.66;86.51;102368.91;2040553;29;20062;-76
2022/11/13 01:02:14;;;;;;;11.20;5.82;;;;;;;13.66;86.68;102363.50;2040321;29;20515;-76
2022/11/13 01:03:37;;;;;;;13.32;5.22;;;;;;;13.70;86.44;102373.78;2039995;29;20047;-75
2022/11/13 01:05:01;;;;;;;14.45;5.60;;;;;;;13.63;86.60;102369.41;2039880;29;20040;-75
2022/11/13 01:06:26;;;;;;;12.68;5.88;;;;;;;13.57;86.56;102370.41;2032247;29;20044;-75
2022/11/13 01:07:47;;;;;;;13.32;5.28;;;;;;;13.55;86.37;102363.63;2038015;29;20035;-76
2022/11/13 01:09:10;;;;;;;12.70;5.60;;;;;;;13.56;86.62;102374.22;2040440;29;20044;-76
2022/11/13 01:10:37;;;;;;;10.45;4.63;;;;;;;13.55;86.49;102361.75;2040512;29;20051;-76
2022/11/13 01:12:00;;;;;;;11.32;4.97;;;;;;;13.55;86.58;102360.94;2039369;29;20044;-76
2022/11/13 01:13:22;;;;;;;10.88;5.18;;;;;;;13.56;86.60;102363.41;2040216;29;20047;-76
2022/11/13 01:14:42;;;;;;;11.85;4.88;;;;;;;13.57;86.77;102361.50;2031671;29;20428;-76
2022/11/13 01:16:08;;;;;;;15.25;5.20;;;;;;;13.61;86.88;102365.31;2031307;29;20089;-76
2022/11/13 01:17:32;;;;;;;14.20;5.10;;;;;;;13.62;86.81;102366.97;2035360;29;20511;-76
2022/11/13 01:18:56;;;;;;;16.33;5.15;;;;;;;13.65;86.80;102361.88;2037553;29;20032;-76
2022/11/13 01:20:20;;;;;;;17.70;4.82;;;;;;;13.60;86.52;102364.50;2042227;29;20752;-76
2022/11/13 01:21:43;;;;;;;13.23;4.90;;;;;;;13.54;86.57;102364.72;2042535;29;20047;-76
2022/11/13 01:23:05;;;;;;;15.15;5.20;;;;;;;13.44;86.33;102362.72;2043266;29;20044;-78
2022/11/13 01:24:30;;;;;;;12.75;5.15;;;;;;;13.39;86.52;102373.47;2042620;29;20048;-78
2022/11/13 01:25:51;;;;;;;9.95;4.85;;;;;;;13.34;86.52;102365.31;2037467;29;20498;-77
2022/11/13 01:27:14;;;;;;;12.40;4.65;;;;;;;13.31;87.01;102365.81;2035093;29;20065;-77
2022/11/13 01:28:34;;;;;;;12.48;4.90;;;;;;;13.32;86.94;102356.63;2035245;29;20036;-76
2022/11/13 01:29:56;;;;;;;13.30;4.72;;;;;;;13.33;87.11;102358.25;2035313;29;20573;-77
2022/11/13 01:31:21;;;;;;;11.07;5.05;;;;;;;13.32;87.27;102351.22;2034607;29;20418;-77
2022/11/13 01:32:43;;;;;;;14.82;5.18;;;;;;;13.32;87.18;102356.63;2034902;29;20036;-76
2022/11/13 01:34:03;;;;;;;9.30;5.18;;;;;;;13.32;87.43;102357.44;2042290;29;20040;-77
2022/11/13 01:35:27;;;;;;;11.43;5.13;;;;;;;13.36;87.68;102352.34;2033690;29;20060;-77
2022/11/13 01:36:47;;;;;;;11.65;4.40;;;;;;;13.39;87.80;102351.84;2038734;29;20040;-77
2022/11/13 01:38:11;;;;;;;12.30;4.72;;;;;;;13.41;87.83;102357.81;2041756;29;20050;-76
2022/11/13 01:39:35;;;;;;;17.08;5.20;;;;;;;13.46;87.84;102363.25;2036001;29;20032;-76
2022/11/13 01:40:59;;;;;;;10.98;4.63;;;;;;;13.50;87.50;102361.72;2034034;29;20062;-76
2022/11/13 01:42:22;;;;;;;13.70;4.63;;;;;;;13.49;87.39;102362.75;2041213;29;20047;-76
2022/11/13 01:43:48;;;;;;;12.32;4.57;;;;;;;13.46;87.38;102365.97;2033031;29;20056;-76
2022/11/13 01:45:46;;;;;;;11.98;5.57;;;;;;;13.40;86.98;102372.41;2033785;29;20035;-76
2022/11/13 01:47:10;;;;;;;11.80;4.40;;;;;;;13.38;87.32;102361.84;2041251;29;20661;-77
2022/11/13 01:48:44;;;;;;;14.98;5.18;;;;;;;13.40;87.45;102358.91;2037204;29;20048;-76
2022/11/13 01:50:11;;;;;;;10.75;5.07;;;;;;;13.39;87.40;102354.53;2026737;29;20047;-76
2022/11/13 01:51:51;;;;;;;12.48;4.78;;;;;;;13.40;87.42;102358.91;2027956;29;20044;-76
2022/11/13 01:53:11;;;;;;;10.57;4.03;;;;;;;13.43;87.60;102363.81;2031508;29;20039;-75
2022/11/13 01:54:38;;;;;;;8.32;4.43;;;;;;;13.39;87.31;102351.84;2029106;29;20040;-75
2022/11/13 01:56:01;;;;;;;13.88;4.38;;;;;;;13.36;87.46;102357.75;2034124;29;20048;-75
2022/11/13 01:57:21;;;;;;;12.43;4.65;;;;;;;13.32;87.40;102362.03;2049273;29;20043;-75
2022/11/13 01:58:52;;;;;;;17.65;6.07;;;;;;;13.30;87.47;102354.16;2042511;29;20456;-75
2022/11/13 02:00:15;;;;;;;10.95;4.35;;;;;;;13.32;87.55;102353.94;2040527;29;20384;-76
2022/11/13 02:01:41;;;;;;;11.15;4.20;;;;;;;13.35;87.64;102356.13;2037318;29;20044;-76
2022/11/13 02:03:02;;;;;;;10.38;4.30;;;;;;;13.37;87.32;102356.72;2042402;29;20064;-75
2022/11/13 02:04:27;;;;;;;8.27;4.20;;;;;;;13.32;87.47;102356.63;2041130;29;20048;-75
2022/11/13 02:05:52;;;;;;;8.57;3.72;;;;;;;13.36;87.46;102360.47;2041514;29;20403;-76
2022/11/13 02:07:17;;;;;;;11.60;4.50;;;;;;;13.37;87.68;102349.41;2041894;29;20063;-75
2022/11/13 02:08:41;;;;;;;9.88;3.97;;;;;;;13.36;87.29;102358.56;2041822;29;20048;-75
2022/11/13 02:10:10;;;;;;;8.88;3.85;;;;;;;13.38;87.30;102350.22;2041660;29;20074;-75
2022/11/13 02:11:37;;;;;;;14.75;4.43;;;;;;;13.40;87.53;102353.50;2041003;29;20063;-75
2022/11/13 02:12:58;;;;;;;12.43;4.63;;;;;;;13.42;87.21;102343.22;2041072;29;20043;-75
2022/11/13 02:14:22;;;;;;;12.32;4.07;;;;;;;13.41;87.05;102338.91;2041581;29;20039;-76
2022/11/13 02:15:47;;;;;;;12.10;4.32;;;;;;;13.45;87.13;102345.44;2041761;29;20039;-75
2022/11/13 02:17:12;;;;;;;14.80;4.38;;;;;;;13.47;87.33;102342.50;2042819;29;20047;-75
2022/11/13 02:18:38;;;;;;;13.93;4.30;;;;;;;13.38;87.03;102337.53;2042605;29;20384;-75
2022/11/13 02:20:04;;;;;;;13.38;4.43;;;;;;;13.28;86.80;102350.94;2042170;29;20040;-75
2022/11/13 02:21:28;;;;;;;9.57;4.45;;;;;;;13.29;87.12;102335.53;2037413;29;20050;-75
2022/11/13 02:23:01;;;;;;;12.38;4.70;;;;;;;13.27;86.99;102349.28;2034116;29;20397;-76
2022/11/13 02:24:56;;;;;;;14.13;4.47;;;;;;;13.27;87.33;102354.69;2037497;29;20067;-76
2022/11/13 02:26:19;;;;;;;12.55;4.55;;;;;;;13.28;87.08;102352.81;2041811;29;20598;-76
2022/11/13 02:27:48;;;;;;;9.57;4.30;;;;;;;13.25;87.17;102350.63;2044811;29;20047;-75
2022/11/13 02:29:08;;;;;;;13.23;4.80;;;;;;;13.29;87.25;102343.63;2041850;29;20044;-76
2022/11/13 02:30:32;;;;;;;12.43;4.10;;;;;;;13.31;87.20;102330.69;2036743;29;20063;-75
2022/11/13 02:31:53;;;;;;;12.70;4.68;;;;;;;13.33;87.23;102333.94;2041521;29;20066;-76
2022/11/13 02:33:22;;;;;;;8.70;3.83;;;;;;;13.35;87.45;102329.13;2039145;29;20051;-76
2022/11/13 02:34:45;;;;;;;11.68;4.15;;;;;;;13.37;87.39;102338.59;2037572;29;20048;-75
2022/11/13 02:36:11;;;;;;;11.23;4.60;;;;;;;13.40;87.39;102335.41;2039299;29;20062;-76
2022/11/13 02:37:32;;;;;;;10.88;3.70;;;;;;;13.39;86.98;102333.75;2041605;29;20396;-75
2022/11/13 02:38:55;;;;;;;10.13;3.75;;;;;;;13.38;87.11;102339.41;2041483;29;20054;-76
2022/11/13 02:40:17;;;;;;;15.50;4.28;;;;;;;13.31;86.84;102334.22;2041587;29;20395;-76
2022/11/13 02:41:38;;;;;;;9.80;3.88;;;;;;;13.27;86.94;102345.75;2040851;29;20051;-76
2022/11/13 02:43:05;;;;;;;10.80;4.47;;;;;;;13.27;86.70;102338.47;2040554;29;20484;-75
2022/11/13 02:44:31;;;;;;;14.20;3.92;;;;;;;13.25;86.77;102342.50;2033037;29;20061;-75
2022/11/13 02:45:53;;;;;;;11.18;4.25;;;;;;;13.20;86.85;102338.63;2028062;29;20044;-75
2022/11/13 02:47:14;;;;;;;12.00;4.45;;;;;;;13.22;87.14;102341.09;2033323;29;20051;-75
2022/11/13 02:48:35;;;;;;;11.25;4.35;;;;;;;13.21;87.03;102345.69;2033753;29;20056;-75
2022/11/13 02:49:55;;;;;;;10.60;4.30;;;;;;;13.24;86.96;102344.38;2033031;29;20067;-75
2022/11/13 02:51:16;;;;;;;11.50;4.18;;;;;;;13.25;86.73;102345.22;2036873;29;20052;-76
2022/11/13 02:52:39;;;;;;;9.80;3.72;;;;;;;13.25;86.83;102345.22;2034276;29;20048;-75
2022/11/13 02:54:00;;;;;;;13.23;4.63;;;;;;;13.25;87.12;102343.31;2034301;29;20051;-75
2022/11/13 02:55:23;;;;;;;8.43;4.20;;;;;;;13.27;86.86;102337.66;2034223;29;20048;-75
2022/11/13 02:56:46;;;;;;;10.43;4.20;;;;;;;13.27;87.06;102340.34;2036877;29;20047;-75
2022/11/13 02:58:10;;;;;;;11.93;4.03;;;;;;;13.28;86.94;102347.41;2034047;29;20052;-75
2022/11/13 02:59:30;;;;;;;13.10;3.92;;;;;;;13.27;86.76;102332.25;2034734;29;20480;-75
2022/11/13 03:00:51;;;;;;;10.15;4.18;;;;;;;13.23;86.83;102343.53;2041554;29;20051;-75
2022/11/13 03:02:13;;;;;;;8.27;3.70;;;;;;;13.21;86.68;102332.19;2038967;29;20044;-75
2022/11/13 03:03:34;;;;;;;12.32;3.88;;;;;;;13.24;86.88;102336.28;2041858;29;20067;-74
2022/11/13 03:04:55;;;;;;;9.15;4.07;;;;;;;13.27;86.88;102343.06;2036915;29;20044;-75
2022/11/13 03:06:18;;;;;;;12.07;4.40;;;;;;;13.28;86.79;102344.72;2033828;29;20040;-75
2022/11/13 03:07:41;;;;;;;10.60;4.25;;;;;;;13.25;87.07;102339.81;2033592;29;20048;-75
2022/11/13 03:09:05;;;;;;;15.60;4.43;;;;;;;13.28;86.84;102347.41;2036230;29;20047;-75
2022/11/13 03:10:26;;;;;;;15.40;4.45;;;;;;;13.25;86.63;102347.91;2033492;29;20408;-75
2022/11/13 03:11:47;;;;;;;12.48;4.10;;;;;;;13.25;86.83;102345.22;2034738;29;20047;-75
2022/11/13 03:13:10;;;;;;;11.88;4.28;;;;;;;13.26;86.71;102336.84;2034138;29;20055;-75
2022/11/13 03:14:36;;;;;;;10.77;4.05;;;;;;;13.23;86.52;102329.22;2040603;29;20047;-75
2022/11/13 03:16:13;;;;;;;12.20;4.38;;;;;;;13.25;86.57;102334.41;2032584;29;20059;-74
2022/11/13 03:17:35;;;;;;;10.23;3.80;;;;;;;13.27;86.79;102345.75;2040106;29;20056;-75
2022/11/13 03:18:56;;;;;;;14.43;4.32;;;;;;;13.27;86.55;102346.56;2040533;29;20057;-75
2022/11/13 03:20:16;;;;;;;7.80;3.70;;;;;;;13.28;86.75;102342.00;2036103;29;20484;-75
2022/11/13 03:21:38;;;;;;;14.88;4.20;;;;;;;13.30;86.42;102345.25;2033629;29;20504;-75
2022/11/13 03:23:00;;;;;;;11.57;3.83;;;;;;;13.29;86.68;102336.34;2033572;29;20052;-75
2022/11/13 03:24:22;;;;;;;13.18;4.28;;;;;;;13.26;86.63;102341.44;2040763;29;20036;-74
2022/11/13 03:25:46;;;;;;;14.25;4.50;;;;;;;13.25;86.63;102329.00;2035634;29;20052;-74
2022/11/13 03:27:09;;;;;;;11.13;3.80;;;;;;;13.19;86.21;102336.19;2032632;29;20048;-75
2022/11/13 03:28:30;;;;;;;9.80;3.60;;;;;;;13.17;86.21;102339.13;2033048;29;20036;-75
2022/11/13 03:29:52;;;;;;;11.52;4.30;;;;;;;13.20;86.60;102346.75;2032411;29;20044;-75
2022/11/13 03:31:15;;;;;;;9.38;4.20;;;;;;;13.21;86.71;102336.78;2033093;29;20047;-75
2022/11/13 03:32:38;;;;;;;6.63;3.60;;;;;;;13.23;86.80;102331.91;2032732;29;20040;-75
2022/11/13 03:33:59;;;;;;;12.25;4.40;;;;;;;13.27;86.36;102333.06;2032903;29;20032;-75
2022/11/13 03:35:22;;;;;;;12.20;3.65;;;;;;;13.25;86.37;102329.81;2024802;29;20045;-75
2022/11/13 03:36:45;;;;;;;11.98;4.28;;;;;;;13.24;86.41;102328.16;2025179;29;20032;-75
2022/11/13 03:38:07;;;;;;;11.20;4.20;;;;;;;13.24;86.45;102341.66;2029865;29;20040;-75
2022/11/13 03:39:29;;;;;;;15.48;4.40;;;;;;;13.19;86.24;102337.00;2033574;29;20040;-75
2022/11/13 03:40:54;;;;;;;12.65;4.25;;;;;;;13.21;86.46;102340.28;2033706;29;20416;-75
2022/11/13 03:42:18;;;;;;;12.73;4.40;;;;;;;13.25;86.59;102343.31;2033457;29;20137;-75
2022/11/13 03:43:38;;;;;;;10.82;4.15;;;;;;;13.27;86.48;102345.75;2040479;29;20039;-75
2022/11/13 03:44:59;;;;;;;9.23;4.10;;;;;;;13.30;86.36;102337.16;2025861;29;20462;-74
2022/11/13 03:46:23;;;;;;;13.63;4.18;;;;;;;13.30;86.17;102342.56;2031456;29;20063;-74
2022/11/13 03:47:46;;;;;;;13.95;4.15;;;;;;;13.31;86.38;102336.09;2041494;29;20528;-73
2022/11/13 03:49:08;;;;;;;11.88;4.13;;;;;;;13.30;86.13;102337.97;2036760;29;20392;-73
2022/11/13 03:50:29;;;;;;;9.82;3.97;;;;;;;13.31;85.96;102334.22;2033854;29;20504;-74
2022/11/13 03:51:50;;;;;;;9.93;4.35;;;;;;;13.32;85.92;102335.03;2033739;29;20032;-73
2022/11/13 03:53:10;;;;;;;9.65;3.80;;;;;;;13.37;86.05;102343.19;2022993;29;20850;-73
2022/11/13 03:54:30;;;;;;;8.70;3.63;;;;;;;13.37;85.82;102338.59;2030679;29;20040;-73
2022/11/13 03:55:51;;;;;;;7.82;3.72;;;;;;;13.37;85.89;102337.78;2033771;29;20071;-73
2022/11/13 03:57:14;;;;;;;9.73;3.85;;;;;;;13.39;85.68;102335.63;2034036;29;20082;-73
2022/11/13 03:58:38;;;;;;;13.55;3.90;;;;;;;13.39;85.59;102335.63;2041111;29;20051;-73
2022/11/13 03:59:59;;;;;;;10.95;4.00;;;;;;;13.41;85.61;102336.22;2038570;29;20039;-73
2022/11/13 04:01:23;;;;;;;8.25;3.75;;;;;;;13.42;85.32;102335.13;2033741;29;20048;-73
2022/11/13 04:02:44;;;;;;;11.90;4.45;;;;;;;13.40;85.26;102329.19;2033975;29;20048;-72
2022/11/13 04:04:07;;;;;;;6.82;3.50;;;;;;;13.39;85.25;102330.22;2041252;29;20043;-73
2022/11/13 04:05:33;;;;;;;9.00;3.95;;;;;;;13.39;84.99;102335.63;2037281;29;20052;-72
2022/11/13 04:06:54;;;;;;;10.75;3.97;;;;;;;13.38;85.03;102334.00;2033033;29;20047;-73
2022/11/13 04:08:15;;;;;;;10.88;3.70;;;;;;;13.35;84.88;102340.72;2033160;29;20393;-73
2022/11/13 04:09:36;;;;;;;7.53;3.67;;;;;;;13.36;84.99;102341.53;2032383;29;20051;-73
2022/11/13 04:11:08;;;;;;;10.10;3.83;;;;;;;13.38;84.90;102339.41;2032819;29;20044;-73
2022/11/13 04:12:29;;;;;;;9.98;4.05;;;;;;;13.41;84.93;102344.31;2032431;29;20511;-72
2022/11/13 04:13:52;;;;;;;13.68;4.10;;;;;;;13.40;84.72;102342.69;2035065;29;20028;-72
2022/11/13 04:15:21;;;;;;;9.48;3.53;;;;;;;13.36;84.66;102334.25;2037346;29;20062;-73
2022/11/13 04:16:41;;;;;;;11.15;3.80;;;;;;;13.32;84.46;102340.44;2032287;29;20489;-74
2022/11/13 04:18:03;;;;;;;12.15;3.63;;;;;;;13.32;84.54;102335.03;2032553;29;20032;-73
2022/11/13 04:19:23;;;;;;;8.88;3.88;;;;;;;13.33;84.73;102336.66;2032853;29;20044;-74
2022/11/13 04:20:46;;;;;;;7.22;3.30;;;;;;;13.32;84.67;102338.53;2040348;29;20508;-74
2022/11/13 04:22:07;;;;;;;10.70;4.57;;;;;;;13.34;84.50;102341.00;2032305;29;20036;-74
2022/11/13 04:23:28;;;;;;;12.27;4.30;;;;;;;13.34;84.39;102341.81;2032778;29;20392;-74
2022/11/13 04:24:51;;;;;;;9.75;3.75;;;;;;;13.31;84.23;102338.81;2032438;29;20043;-74
2022/11/13 04:26:15;;;;;;;11.32;3.70;;;;;;;13.29;84.34;102336.34;2032497;29;20052;-74
2022/11/13 04:27:40;;;;;;;13.00;4.28;;;;;;;13.29;84.09;102346.34;2032482;29;20048;-75
2022/11/13 04:29:00;;;;;;;14.32;3.67;;;;;;;13.31;84.45;102330.69;2040305;29;20039;-74
2022/11/13 04:30:23;;;;;;;10.05;3.33;;;;;;;13.31;84.34;102339.63;2039898;29;20056;-74
2022/11/13 04:31:51;;;;;;;8.73;3.38;;;;;;;13.33;84.39;102339.34;2040944;29;20043;-76
2022/11/13 04:33:17;;;;;;;9.90;3.30;;;;;;;13.33;84.25;102340.16;2041700;29;20040;-77
2022/11/13 04:34:40;;;;;;;8.57;3.30;;;;;;;13.32;83.92;102346.63;2041769;29;20058;-77
2022/11/13 04:36:00;;;;;;;9.00;3.17;;;;;;;13.33;84.04;102358.25;2041307;29;20046;-78
2022/11/13 04:37:24;;;;;;;11.60;3.78;;;;;;;13.32;83.94;102345.81;2041000;29;20039;-78
2022/11/13 04:38:52;;;;;;;7.65;3.30;;;;;;;13.28;83.90;102345.53;2041228;29;20047;-77
2022/11/13 04:40:14;;;;;;;10.60;3.33;;;;;;;13.29;83.96;102340.94;2040941;29;20059;-76
2022/11/13 04:43:19;;;;;;;7.93;3.45;;;;;;;13.27;83.58;102351.16;2039406;29;20039;-76
2022/11/13 04:44:42;;;;;;;9.05;3.17;;;;;;;13.27;83.77;102353.88;2040622;29;20075;-76
2022/11/13 04:46:02;;;;;;;12.60;3.35;;;;;;;13.27;83.60;102343.06;2040048;29;20066;-76
2022/11/13 04:47:23;;;;;;;14.15;3.65;;;;;;;13.25;83.71;102351.44;2040579;29;20055;-76
2022/11/13 04:48:45;;;;;;;10.52;3.55;;;;;;;13.27;83.54;102353.88;2040758;29;20522;-76
2022/11/13 04:50:12;;;;;;;10.15;3.58;;;;;;;13.27;83.69;102353.88;2040157;29;20031;-76
2022/11/13 04:51:32;;;;;;;7.43;3.28;;;;;;;13.26;83.51;102353.06;2027434;29;20032;-76
2022/11/13 04:52:56;;;;;;;10.63;3.90;;;;;;;13.25;83.53;102351.44;2031730;29;20044;-76
2022/11/13 04:54:16;;;;;;;11.95;3.50;;;;;;;13.23;83.32;102343.53;2042609;29;20050;-76
2022/11/13 04:55:42;;;;;;;13.18;3.53;;;;;;;13.23;83.55;102348.94;2039909;29;20044;-76
2022/11/13 04:57:04;;;;;;;8.88;3.50;;;;;;;13.26;83.26;102346.84;2034998;29;20039;-76
2022/11/13 04:58:25;;;;;;;14.65;3.75;;;;;;;13.19;83.04;102347.81;2039351;29;20036;-76
2022/11/13 04:59:46;;;;;;;6.95;3.10;;;;;;;13.20;83.25;102346.75;2040073;29;20125;-76
2022/11/13 05:01:12;;;;;;;9.38;3.17;;;;;;;13.20;83.23;102349.44;2040059;29;20066;-76
2022/11/13 05:02:32;;;;;;;7.10;3.33;;;;;;;13.21;83.18;102345.69;2035251;29;20040;-75
2022/11/13 05:03:53;;;;;;;10.50;4.05;;;;;;;13.25;83.23;102350.63;2037035;29;20550;-74
2022/11/13 05:05:16;;;;;;;8.25;3.60;;;;;;;13.23;83.27;102351.63;2040288;29;20043;-74
2022/11/13 05:06:44;;;;;;;10.30;3.70;;;;;;;13.24;83.07;102347.06;2040461;29;20048;-75
2022/11/13 05:08:09;;;;;;;8.20;3.15;;;;;;;13.26;83.11;102346.84;2040644;29;20055;-74
2022/11/13 05:09:32;;;;;;;10.18;3.30;;;;;;;13.25;83.17;102345.22;2040812;29;20043;-74
2022/11/13 05:10:53;;;;;;;9.75;3.58;;;;;;;13.19;82.71;102350.50;2032305;29;20130;-73
2022/11/13 05:12:14;;;;;;;9.68;2.90;;;;;;;13.12;82.62;102366.09;2037897;29;20035;-74
2022/11/13 05:13:35;;;;;;;9.82;3.33;;;;;;;13.12;83.13;102359.88;2040129;29;20047;-74
2022/11/13 05:14:56;;;;;;;10.15;3.35;;;;;;;13.13;83.04;102345.31;2041201;29;20031;-74
2022/11/13 05:16:22;;;;;;;9.18;2.97;;;;;;;13.14;82.95;102346.94;2039876;29;20044;-74
2022/11/13 05:17:43;;;;;;;6.82;2.80;;;;;;;13.16;83.28;102347.50;2039936;29;20039;-74
2022/11/13 05:19:07;;;;;;;5.75;3.05;;;;;;;13.16;83.09;102348.31;2032171;29;20040;-74
2022/11/13 05:20:27;;;;;;;6.40;2.90;;;;;;;13.19;83.07;102347.81;2037583;29;20051;-74
2022/11/13 05:21:48;;;;;;;8.65;2.72;;;;;;;13.20;83.19;102352.13;2047594;29;20054;-74
2022/11/13 05:23:14;;;;;;;9.75;3.25;;;;;;;13.23;83.13;102357.03;2042661;29;20404;-74
2022/11/13 05:24:34;;;;;;;7.88;3.10;;;;;;;13.26;83.34;102352.25;2039921;29;20040;-76
2022/11/13 05:26:07;;;;;;;9.18;3.05;;;;;;;13.26;82.96;102352.25;2040433;29;20048;-74
2022/11/13 05:27:28;;;;;;;7.00;2.80;;;;;;;13.26;83.13;102357.66;2040074;29;20044;-75
2022/11/13 05:28:53;;;;;;;7.38;2.72;;;;;;;13.27;82.96;102359.25;2026600;29;20050;-74
2022/11/13 05:30:18;;;;;;;8.63;2.83;;;;;;;13.28;83.06;102360.91;2033516;29;20056;-74
2022/11/13 05:31:38;;;;;;;5.72;2.70;;;;;;;13.30;82.83;102359.56;2033225;29;20040;-74
2022/11/13 05:33:01;;;;;;;11.55;3.30;;;;;;;13.29;82.43;102357.13;2022378;29;20501;-75
2022/11/13 05:34:25;;;;;;;7.53;2.65;;;;;;;13.28;82.36;102359.03;2030699;29;20412;-75
2022/11/13 05:35:47;;;;;;;9.20;3.70;;;;;;;13.28;82.21;102360.91;2033711;29;20063;-75
2022/11/13 05:37:13;;;;;;;9.05;3.17;;;;;;;13.27;82.28;102359.25;2032984;29;20044;-75
2022/11/13 05:38:35;;;;;;;7.97;2.80;;;;;;;13.23;82.09;102364.31;2033236;29;20060;-73
2022/11/13 05:39:58;;;;;;;7.15;3.17;;;;;;;13.21;82.26;102377.28;2032974;29;20040;-74
2022/11/13 05:41:22;;;;;;;8.00;3.05;;;;;;;13.18;82.30;102367.81;2028054;29;20059;-75
2022/11/13 05:42:43;;;;;;;10.02;2.80;;;;;;;13.18;82.19;102367.81;2028278;29;20047;-74
2022/11/13 05:44:07;;;;;;;11.13;3.42;;;;;;;13.20;82.38;102360.25;2034068;29;20495;-74
2022/11/13 05:45:33;;;;;;;7.40;3.08;;;;;;;13.21;82.11;102358.38;2035317;29;20055;-75
2022/11/13 05:46:57;;;;;;;6.10;2.95;;;;;;;13.21;82.15;102367.28;2037709;29;20044;-75
2022/11/13 05:48:18;;;;;;;8.43;3.38;;;;;;;13.20;82.13;102360.25;2040107;29;20055;-75
2022/11/13 05:49:43;;;;;;;6.75;2.75;;;;;;;13.21;82.17;102366.50;2040339;29;20400;-75
2022/11/13 05:51:18;;;;;;;12.40;3.30;;;;;;;13.20;82.45;102359.44;2031973;29;20507;-75
2022/11/13 05:52:39;;;;;;;12.73;3.60;;;;;;;13.21;82.55;102372.69;2036278;29;20527;-75
2022/11/13 05:54:07;;;;;;;7.60;3.38;;;;;;;13.20;82.59;102367.53;2036954;29;20043;-74
2022/11/13 05:55:29;;;;;;;13.43;3.78;;;;;;;13.21;82.40;102372.69;2031260;29;20038;-75
2022/11/13 05:56:50;;;;;;;12.10;3.55;;;;;;;13.22;82.53;102371.63;2028719;29;20515;-75
2022/11/13 05:58:11;;;;;;;9.85;3.30;;;;;;;13.22;82.54;102370.81;2033575;29;20043;-75
2022/11/13 05:59:33;;;;;;;7.65;2.90;;;;;;;13.23;82.33;102372.44;2037794;29;20143;-75
2022/11/13 06:00:54;;;;;;;6.25;2.42;;;;;;;13.22;82.23;102358.13;2038472;29;20039;-75
2022/11/13 06:02:15;;;;;;;11.43;3.05;;;;;;;13.22;82.13;102358.13;2035626;29;20058;-75
2022/11/13 06:03:38;;;;;;;8.85;2.78;;;;;;;13.20;82.36;102365.66;2049964;28;20043;-75
2022/11/13 06:04:59;;;;;;;7.53;2.85;;;;;;;13.17;82.20;102366.16;2045580;28;20082;-75
2022/11/13 06:06:25;;;;;;;8.48;2.80;;;;;;;13.16;82.22;102375.31;2035792;29;20044;-75
2022/11/13 06:07:48;;;;;;;8.50;3.88;;;;;;;13.15;82.46;102379.09;2039802;29;20052;-74
2022/11/13 06:09:09;;;;;;;9.63;3.28;;;;;;;13.11;82.31;102371.75;2040740;29;20055;-75
2022/11/13 06:10:32;;;;;;;11.23;3.47;;;;;;;13.11;82.13;102377.94;2037460;29;20125;-75
2022/11/13 06:11:54;;;;;;;8.88;2.90;;;;;;;13.10;82.15;102376.31;2037388;29;20043;-75
2022/11/13 06:13:15;;;;;;;7.50;3.10;;;;;;;13.09;82.00;102380.09;2039204;29;20468;-74
2022/11/13 06:14:38;;;;;;;7.47;3.00;;;;;;;13.09;82.24;102373.91;2041386;29;20031;-72
2022/11/13 06:16:04;;;;;;;5.97;2.83;;;;;;;13.09;82.31;102372.00;2039329;29;20048;-72
2022/11/13 06:17:25;;;;;;;6.75;2.55;;;;;;;13.10;82.21;102379.03;2039713;29;20043;-72
2022/11/13 06:18:49;;;;;;;10.27;2.97;;;;;;;13.10;82.30;102380.91;2038496;29;20050;-72
2022/11/13 06:20:10;;;;;;;9.43;2.88;;;;;;;13.04;82.18;102382.72;2034299;29;20047;-72
2022/11/13 06:21:37;;;;;;;6.40;2.35;;;;;;;13.01;82.30;102385.94;2036483;29;20055;-72
2022/11/13 06:23:00;;;;;;;9.60;2.72;;;;;;;12.97;82.24;102382.09;2038478;29;20039;-72
2022/11/13 06:24:23;;;;;;;5.78;2.80;;;;;;;12.97;82.26;102376.69;2040854;29;20480;-72
2022/11/13 06:25:46;;;;;;;8.70;2.90;;;;;;;12.97;82.27;102382.09;2038170;29;20035;-71